Terminal Aerodrome Forecast
Issued by NWS Tuscon, AZ

Home | Current Version | Previous Version | Text Only | Print | Product List | Glossary On
Versions: 1 2 3 4 5 6 7 8 9 10 11 12 13
000
FTUS45 KTWC 280500
TAFTUS
TAF
KTUS 280532Z 2806/2906 11008KT P6SM SKC
     FM281400 13013G23KT P6SM FEW250
     FM281900 12007KT P6SM FEW250
     FM282200 36006KT P6SM FEW250
     FM290300 22004KT P6SM SKC=

USA.gov is the U.S. government's official web portal to all federal, state and local government web resources and services.